sensor_id;sensor_type;location;lat;lon;timestamp;temperature;humidity
13569;DHT22;6856;51.460;7.158;2024-03-08T00:01:15;7.60;55.30
13569;DHT22;6856;51.460;7.158;2024-03-08T00:03:51;7.40;55.20
13569;DHT22;6856;51.460;7.158;2024-03-08T00:06:25;7.40;55.20
13569;DHT22;6856;51.460;7.158;2024-03-08T00:08:59;7.40;55.30
13569;DHT22;6856;51.460;7.158;2024-03-08T00:11:33;7.40;55.20
13569;DHT22;6856;51.460;7.158;2024-03-08T00:14:08;7.40;55.20
13569;DHT22;6856;51.460;7.158;2024-03-08T00:16:43;7.40;55.20
13569;DHT22;6856;51.460;7.158;2024-03-08T00:19:17;7.30;54.90
13569;DHT22;6856;51.460;7.158;2024-03-08T00:21:51;7.30;54.90
13569;DHT22;6856;51.460;7.158;2024-03-08T00:24:25;7.30;55.10
13569;DHT22;6856;51.460;7.158;2024-03-08T00:27:05;7.30;54.90
13569;DHT22;6856;51.460;7.158;2024-03-08T00:29:38;7.20;54.70
13569;DHT22;6856;51.460;7.158;2024-03-08T00:32:15;7.20;55.20
13569;DHT22;6856;51.460;7.158;2024-03-08T00:34:49;7.20;54.90
13569;DHT22;6856;51.460;7.158;2024-03-08T00:37:24;7.10;54.80
13569;DHT22;6856;51.460;7.158;2024-03-08T00:39:59;7.10;55.00
13569;DHT22;6856;51.460;7.158;2024-03-08T00:42:34;7.30;55.20
13569;DHT22;6856;51.460;7.158;2024-03-08T00:45:11;7.10;55.20
13569;DHT22;6856;51.460;7.158;2024-03-08T00:47:47;7.00;55.20
13569;DHT22;6856;51.460;7.158;2024-03-08T00:50:22;7.10;55.30
13569;DHT22;6856;51.460;7.158;2024-03-08T00:52:57;7.00;55.20
13569;DHT22;6856;51.460;7.158;2024-03-08T00:55:30;7.00;55.40
13569;DHT22;6856;51.460;7.158;2024-03-08T00:58:05;7.00;55.30
13569;DHT22;6856;51.460;7.158;2024-03-08T01:00:41;6.90;55.10
13569;DHT22;6856;51.460;7.158;2024-03-08T01:03:16;6.90;55.10
13569;DHT22;6856;51.460;7.158;2024-03-08T01:05:51;6.90;55.10
13569;DHT22;6856;51.460;7.158;2024-03-08T01:08:25;6.90;55.00
13569;DHT22;6856;51.460;7.158;2024-03-08T01:10:59;6.90;55.00
13569;DHT22;6856;51.460;7.158;2024-03-08T01:13:33;6.80;55.20
13569;DHT22;6856;51.460;7.158;2024-03-08T01:16:08;7.00;55.40
13569;DHT22;6856;51.460;7.158;2024-03-08T01:18:47;6.80;55.70
13569;DHT22;6856;51.460;7.158;2024-03-08T01:21:22;6.70;55.20
13569;DHT22;6856;51.460;7.158;2024-03-08T01:23:56;6.90;55.20
13569;DHT22;6856;51.460;7.158;2024-03-08T01:26:31;6.90;55.40
13569;DHT22;6856;51.460;7.158;2024-03-08T01:29:06;6.70;55.40
13569;DHT22;6856;51.460;7.158;2024-03-08T01:31:40;6.70;55.60
13569;DHT22;6856;51.460;7.158;2024-03-08T01:34:15;6.60;55.50
13569;DHT22;6856;51.460;7.158;2024-03-08T01:36:51;6.60;55.50
13569;DHT22;6856;51.460;7.158;2024-03-08T01:39:25;6.60;55.40
13569;DHT22;6856;51.460;7.158;2024-03-08T01:41:59;6.60;55.40
13569;DHT22;6856;51.460;7.158;2024-03-08T01:44:35;6.60;55.50
13569;DHT22;6856;51.460;7.158;2024-03-08T01:47:12;6.60;55.50
13569;DHT22;6856;51.460;7.158;2024-03-08T01:49:50;6.60;55.60
13569;DHT22;6856;51.460;7.158;2024-03-08T01:52:25;6.60;55.40
13569;DHT22;6856;51.460;7.158;2024-03-08T01:54:59;6.60;55.50
13569;DHT22;6856;51.460;7.158;2024-03-08T01:57:36;6.60;55.50
13569;DHT22;6856;51.460;7.158;2024-03-08T02:00:12;6.50;55.40
13569;DHT22;6856;51.460;7.158;2024-03-08T02:02:47;6.50;55.40
13569;DHT22;6856;51.460;7.158;2024-03-08T02:05:27;6.50;55.50
13569;DHT22;6856;51.460;7.158;2024-03-08T02:08:03;6.50;55.50
13569;DHT22;6856;51.460;7.158;2024-03-08T02:10:38;6.50;55.70
13569;DHT22;6856;51.460;7.158;2024-03-08T02:13:12;6.70;55.70
13569;DHT22;6856;51.460;7.158;2024-03-08T02:15:53;6.50;55.70
13569;DHT22;6856;51.460;7.158;2024-03-08T02:18:28;6.50;55.90
13569;DHT22;6856;51.460;7.158;2024-03-08T02:21:05;6.60;55.90
13569;DHT22;6856;51.460;7.158;2024-03-08T02:23:41;6.50;55.80
13569;DHT22;6856;51.460;7.158;2024-03-08T02:26:16;6.50;55.70
13569;DHT22;6856;51.460;7.158;2024-03-08T02:28:51;6.40;55.70
13569;DHT22;6856;51.460;7.158;2024-03-08T02:31:26;6.40;55.70
13569;DHT22;6856;51.460;7.158;2024-03-08T02:34:00;6.40;55.80
13569;DHT22;6856;51.460;7.158;2024-03-08T02:36:36;6.40;55.80
13569;DHT22;6856;51.460;7.158;2024-03-08T02:39:10;6.40;55.70
13569;DHT22;6856;51.460;7.158;2024-03-08T02:41:44;6.40;55.70
13569;DHT22;6856;51.460;7.158;2024-03-08T02:44:19;6.40;55.80
13569;DHT22;6856;51.460;7.158;2024-03-08T02:46:54;6.40;55.80
13569;DHT22;6856;51.460;7.158;2024-03-08T02:49:28;6.30;55.70
13569;DHT22;6856;51.460;7.158;2024-03-08T02:52:03;6.30;55.60
13569;DHT22;6856;51.460;7.158;2024-03-08T02:54:37;6.30;55.70
13569;DHT22;6856;51.460;7.158;2024-03-08T02:57:11;6.30;55.50
13569;DHT22;6856;51.460;7.158;2024-03-08T02:59:46;6.30;55.60
13569;DHT22;6856;51.460;7.158;2024-03-08T03:02:20;6.30;55.60
13569;DHT22;6856;51.460;7.158;2024-03-08T03:04:55;6.30;55.60
13569;DHT22;6856;51.460;7.158;2024-03-08T03:07:33;6.30;55.60
13569;DHT22;6856;51.460;7.158;2024-03-08T03:10:08;6.20;55.60
13569;DHT22;6856;51.460;7.158;2024-03-08T03:12:45;6.20;55.70
13569;DHT22;6856;51.460;7.158;2024-03-08T03:15:20;6.20;55.70
13569;DHT22;6856;51.460;7.158;2024-03-08T03:17:59;6.10;55.60
13569;DHT22;6856;51.460;7.158;2024-03-08T03:20:33;6.10;55.60
13569;DHT22;6856;51.460;7.158;2024-03-08T03:23:15;6.10;55.70
13569;DHT22;6856;51.460;7.158;2024-03-08T03:25:53;6.30;55.80
13569;DHT22;6856;51.460;7.158;2024-03-08T03:28:29;6.00;55.70
13569;DHT22;6856;51.460;7.158;2024-03-08T03:31:07;6.00;55.70
13569;DHT22;6856;51.460;7.158;2024-03-08T03:33:46;6.00;55.80
13569;DHT22;6856;51.460;7.158;2024-03-08T03:36:20;6.00;55.90
13569;DHT22;6856;51.460;7.158;2024-03-08T03:38:55;6.00;55.80
13569;DHT22;6856;51.460;7.158;2024-03-08T03:41:39;6.00;55.90
13569;DHT22;6856;51.460;7.158;2024-03-08T03:44:13;5.90;56.00
13569;DHT22;6856;51.460;7.158;2024-03-08T03:46:51;5.90;56.00
13569;DHT22;6856;51.460;7.158;2024-03-08T03:49:25;5.90;56.10
13569;DHT22;6856;51.460;7.158;2024-03-08T03:52:01;5.90;56.10
13569;DHT22;6856;51.460;7.158;2024-03-08T03:54:38;5.90;56.10
13569;DHT22;6856;51.460;7.158;2024-03-08T03:57:12;5.90;56.00
13569;DHT22;6856;51.460;7.158;2024-03-08T03:59:46;5.90;56.20
13569;DHT22;6856;51.460;7.158;2024-03-08T04:02:20;5.90;56.10
13569;DHT22;6856;51.460;7.158;2024-03-08T04:04:54;5.90;56.10
13569;DHT22;6856;51.460;7.158;2024-03-08T04:07:29;5.90;56.00
13569;DHT22;6856;51.460;7.158;2024-03-08T04:10:07;5.90;56.20
13569;DHT22;6856;51.460;7.158;2024-03-08T04:12:45;5.80;56.00
13569;DHT22;6856;51.460;7.158;2024-03-08T04:15:19;5.80;55.90
13569;DHT22;6856;51.460;7.158;2024-03-08T04:17:53;5.80;56.00
13569;DHT22;6856;51.460;7.158;2024-03-08T04:20:28;5.80;56.10
13569;DHT22;6856;51.460;7.158;2024-03-08T04:23:03;5.80;56.20
13569;DHT22;6856;51.460;7.158;2024-03-08T04:25:40;5.80;56.20
13569;DHT22;6856;51.460;7.158;2024-03-08T04:28:18;5.70;56.20
13569;DHT22;6856;51.460;7.158;2024-03-08T04:30:54;5.80;56.20
13569;DHT22;6856;51.460;7.158;2024-03-08T04:33:29;5.70;56.10
13569;DHT22;6856;51.460;7.158;2024-03-08T04:36:05;5.80;56.30
13569;DHT22;6856;51.460;7.158;2024-03-08T04:38:49;5.70;56.30
13569;DHT22;6856;51.460;7.158;2024-03-08T04:41:25;5.70;56.20
13569;DHT22;6856;51.460;7.158;2024-03-08T04:43:59;5.70;56.30
13569;DHT22;6856;51.460;7.158;2024-03-08T04:46:33;5.90;56.50
13569;DHT22;6856;51.460;7.158;2024-03-08T04:49:07;5.70;56.40
13569;DHT22;6856;51.460;7.158;2024-03-08T04:51:41;5.70;56.30
13569;DHT22;6856;51.460;7.158;2024-03-08T04:54:17;5.70;56.40
13569;DHT22;6856;51.460;7.158;2024-03-08T04:56:55;5.70;56.40
13569;DHT22;6856;51.460;7.158;2024-03-08T04:59:29;5.70;56.30
13569;DHT22;6856;51.460;7.158;2024-03-08T05:02:03;5.70;56.40
13569;DHT22;6856;51.460;7.158;2024-03-08T05:04:39;5.60;56.30
13569;DHT22;6856;51.460;7.158;2024-03-08T05:07:15;5.60;56.30
13569;DHT22;6856;51.460;7.158;2024-03-08T05:09:52;5.60;56.30
13569;DHT22;6856;51.460;7.158;2024-03-08T05:12:28;5.60;56.30
13569;DHT22;6856;51.460;7.158;2024-03-08T05:15:01;5.60;56.30
13569;DHT22;6856;51.460;7.158;2024-03-08T05:17:39;5.60;56.30
13569;DHT22;6856;51.460;7.158;2024-03-08T05:20:15;5.60;56.40
13569;DHT22;6856;51.460;7.158;2024-03-08T05:22:49;5.50;56.50
13569;DHT22;6856;51.460;7.158;2024-03-08T05:25:23;5.50;56.40
13569;DHT22;6856;51.460;7.158;2024-03-08T05:28:00;5.50;56.30
13569;DHT22;6856;51.460;7.158;2024-03-08T05:30:33;5.50;56.20
13569;DHT22;6856;51.460;7.158;2024-03-08T05:33:09;5.50;56.40
13569;DHT22;6856;51.460;7.158;2024-03-08T05:35:48;5.50;56.50
13569;DHT22;6856;51.460;7.158;2024-03-08T05:38:22;5.40;56.50
13569;DHT22;6856;51.460;7.158;2024-03-08T05:40:56;5.40;56.40
13569;DHT22;6856;51.460;7.158;2024-03-08T05:43:32;5.40;56.50
13569;DHT22;6856;51.460;7.158;2024-03-08T05:46:06;5.40;56.40
13569;DHT22;6856;51.460;7.158;2024-03-08T05:48:40;5.40;56.50
13569;DHT22;6856;51.460;7.158;2024-03-08T05:51:14;5.40;56.40
13569;DHT22;6856;51.460;7.158;2024-03-08T05:53:51;5.40;56.60
13569;DHT22;6856;51.460;7.158;2024-03-08T05:56:25;5.40;56.60
13569;DHT22;6856;51.460;7.158;2024-03-08T05:59:02;5.30;57.10
13569;DHT22;6856;51.460;7.158;2024-03-08T06:01:36;5.30;56.50
13569;DHT22;6856;51.460;7.158;2024-03-08T06:04:15;5.30;56.50
13569;DHT22;6856;51.460;7.158;2024-03-08T06:06:50;5.40;56.50
13569;DHT22;6856;51.460;7.158;2024-03-08T06:09:27;5.30;56.50
13569;DHT22;6856;51.460;7.158;2024-03-08T06:12:01;5.30;56.50
13569;DHT22;6856;51.460;7.158;2024-03-08T06:14:38;5.30;56.50
13569;DHT22;6856;51.460;7.158;2024-03-08T06:17:12;5.20;56.50
13569;DHT22;6856;51.460;7.158;2024-03-08T06:19:46;5.30;56.60
13569;DHT22;6856;51.460;7.158;2024-03-08T06:22:20;5.20;56.50
13569;DHT22;6856;51.460;7.158;2024-03-08T06:24:55;5.20;56.60
13569;DHT22;6856;51.460;7.158;2024-03-08T06:27:33;5.20;57.30
13569;DHT22;6856;51.460;7.158;2024-03-08T06:30:11;5.20;56.70
13569;DHT22;6856;51.460;7.158;2024-03-08T06:32:46;5.20;56.90
13569;DHT22;6856;51.460;7.158;2024-03-08T06:35:20;5.20;56.90
13569;DHT22;6856;51.460;7.158;2024-03-08T06:37:55;5.30;56.80
13569;DHT22;6856;51.460;7.158;2024-03-08T06:40:30;5.20;56.90
13569;DHT22;6856;51.460;7.158;2024-03-08T06:43:12;5.20;57.10
13569;DHT22;6856;51.460;7.158;2024-03-08T06:45:49;5.20;56.90
13569;DHT22;6856;51.460;7.158;2024-03-08T06:48:26;5.20;57.10
13569;DHT22;6856;51.460;7.158;2024-03-08T06:51:01;5.20;57.10
13569;DHT22;6856;51.460;7.158;2024-03-08T06:53:36;5.20;57.10
13569;DHT22;6856;51.460;7.158;2024-03-08T06:56:11;5.20;57.20
13569;DHT22;6856;51.460;7.158;2024-03-08T06:58:47;5.20;57.30
13569;DHT22;6856;51.460;7.158;2024-03-08T07:01:23;5.40;57.50
13569;DHT22;6856;51.460;7.158;2024-03-08T07:03:59;5.30;57.30
13569;DHT22;6856;51.460;7.158;2024-03-08T07:06:37;5.30;57.50
13569;DHT22;6856;51.460;7.158;2024-03-08T07:09:13;5.30;57.60
13569;DHT22;6856;51.460;7.158;2024-03-08T07:11:50;5.30;57.60
13569;DHT22;6856;51.460;7.158;2024-03-08T07:14:27;5.30;57.50
13569;DHT22;6856;51.460;7.158;2024-03-08T07:17:02;5.20;57.50
13569;DHT22;6856;51.460;7.158;2024-03-08T07:19:39;5.40;57.50
13569;DHT22;6856;51.460;7.158;2024-03-08T07:22:14;5.40;57.80
13569;DHT22;6856;51.460;7.158;2024-03-08T07:24:48;5.40;57.80
13569;DHT22;6856;51.460;7.158;2024-03-08T07:27:36;5.50;57.70
13569;DHT22;6856;51.460;7.158;2024-03-08T07:30:12;5.50;57.80
13569;DHT22;6856;51.460;7.158;2024-03-08T07:33:08;5.60;58.00
13569;DHT22;6856;51.460;7.158;2024-03-08T07:35:44;5.60;58.00
13569;DHT22;6856;51.460;7.158;2024-03-08T07:38:22;5.70;57.90
13569;DHT22;6856;51.460;7.158;2024-03-08T07:40:56;5.70;58.10
13569;DHT22;6856;51.460;7.158;2024-03-08T07:43:32;5.90;58.20
13569;DHT22;6856;51.460;7.158;2024-03-08T07:46:06;5.80;58.10
13569;DHT22;6856;51.460;7.158;2024-03-08T07:48:44;5.90;58.10
13569;DHT22;6856;51.460;7.158;2024-03-08T07:51:19;5.90;57.90
13569;DHT22;6856;51.460;7.158;2024-03-08T07:53:56;6.00;58.00
13569;DHT22;6856;51.460;7.158;2024-03-08T07:56:30;6.00;58.20
13569;DHT22;6856;51.460;7.158;2024-03-08T07:59:04;6.10;58.20
13569;DHT22;6856;51.460;7.158;2024-03-08T08:01:38;6.20;58.10
13569;DHT22;6856;51.460;7.158;2024-03-08T08:04:14;6.20;58.20
13569;DHT22;6856;51.460;7.158;2024-03-08T08:06:50;6.30;57.90
13569;DHT22;6856;51.460;7.158;2024-03-08T08:09:25;6.50;58.20
13569;DHT22;6856;51.460;7.158;2024-03-08T08:12:08;6.40;58.20
13569;DHT22;6856;51.460;7.158;2024-03-08T08:14:45;6.50;58.20
13569;DHT22;6856;51.460;7.158;2024-03-08T08:17:19;6.60;58.10
13569;DHT22;6856;51.460;7.158;2024-03-08T08:20:01;6.70;58.10
13569;DHT22;6856;51.460;7.158;2024-03-08T08:22:37;6.80;58.00
13569;DHT22;6856;51.460;7.158;2024-03-08T08:25:13;6.90;57.70
13569;DHT22;6856;51.460;7.158;2024-03-08T08:27:52;7.10;57.70
13569;DHT22;6856;51.460;7.158;2024-03-08T08:30:26;7.10;57.60
13569;DHT22;6856;51.460;7.158;2024-03-08T08:32:59;7.10;57.40
13569;DHT22;6856;51.460;7.158;2024-03-08T08:35:35;7.20;57.40
13569;DHT22;6856;51.460;7.158;2024-03-08T08:38:09;7.30;57.40
13569;DHT22;6856;51.460;7.158;2024-03-08T08:40:44;7.40;57.50
13569;DHT22;6856;51.460;7.158;2024-03-08T08:43:19;7.50;57.40
13569;DHT22;6856;51.460;7.158;2024-03-08T08:45:56;7.50;57.10
13569;DHT22;6856;51.460;7.158;2024-03-08T08:48:29;7.60;57.10
13569;DHT22;6856;51.460;7.158;2024-03-08T08:51:05;7.70;57.00
13569;DHT22;6856;51.460;7.158;2024-03-08T08:53:40;7.80;56.90
13569;DHT22;6856;51.460;7.158;2024-03-08T08:56:14;7.90;56.80
13569;DHT22;6856;51.460;7.158;2024-03-08T08:58:50;8.00;56.60
13569;DHT22;6856;51.460;7.158;2024-03-08T09:01:25;8.00;56.50
13569;DHT22;6856;51.460;7.158;2024-03-08T09:04:01;8.10;56.40
13569;DHT22;6856;51.460;7.158;2024-03-08T09:06:36;8.20;56.40
13569;DHT22;6856;51.460;7.158;2024-03-08T09:09:13;8.30;56.30
13569;DHT22;6856;51.460;7.158;2024-03-08T09:11:49;8.40;56.10
13569;DHT22;6856;51.460;7.158;2024-03-08T09:14:23;8.50;56.10
13569;DHT22;6856;51.460;7.158;2024-03-08T09:16:59;8.60;56.00
13569;DHT22;6856;51.460;7.158;2024-03-08T09:19:33;8.60;55.80
13569;DHT22;6856;51.460;7.158;2024-03-08T09:22:10;8.70;55.60
13569;DHT22;6856;51.460;7.158;2024-03-08T09:24:47;8.80;55.60
13569;DHT22;6856;51.460;7.158;2024-03-08T09:27:21;8.90;56.00
13569;DHT22;6856;51.460;7.158;2024-03-08T09:29:55;8.90;55.30
13569;DHT22;6856;51.460;7.158;2024-03-08T09:32:29;9.00;55.30
13569;DHT22;6856;51.460;7.158;2024-03-08T09:35:04;9.10;55.20
13569;DHT22;6856;51.460;7.158;2024-03-08T09:37:41;9.10;55.40
13569;DHT22;6856;51.460;7.158;2024-03-08T09:40:15;9.20;55.40
13569;DHT22;6856;51.460;7.158;2024-03-08T09:42:52;9.30;55.20
13569;DHT22;6856;51.460;7.158;2024-03-08T09:45:29;9.40;55.00
13569;DHT22;6856;51.460;7.158;2024-03-08T09:48:11;9.50;55.00
13569;DHT22;6856;51.460;7.158;2024-03-08T09:50:46;9.60;54.90
13569;DHT22;6856;51.460;7.158;2024-03-08T09:53:25;9.70;54.70
13569;DHT22;6856;51.460;7.158;2024-03-08T09:55:59;9.80;54.60
13569;DHT22;6856;51.460;7.158;2024-03-08T09:58:34;9.90;54.70
13569;DHT22;6856;51.460;7.158;2024-03-08T10:01:26;10.00;54.60
13569;DHT22;6856;51.460;7.158;2024-03-08T10:04:02;10.10;54.60
13569;DHT22;6856;51.460;7.158;2024-03-08T10:06:36;10.10;54.40
13569;DHT22;6856;51.460;7.158;2024-03-08T10:09:11;10.20;54.30
13569;DHT22;6856;51.460;7.158;2024-03-08T10:11:45;10.30;54.30
13569;DHT22;6856;51.460;7.158;2024-03-08T10:14:21;10.40;54.20
13569;DHT22;6856;51.460;7.158;2024-03-08T10:16:55;10.50;54.10
13569;DHT22;6856;51.460;7.158;2024-03-08T10:19:32;10.60;54.00
13569;DHT22;6856;51.460;7.158;2024-03-08T10:22:06;10.70;53.90
13569;DHT22;6856;51.460;7.158;2024-03-08T10:24:51;10.70;53.90
13569;DHT22;6856;51.460;7.158;2024-03-08T10:27:26;10.80;53.70
13569;DHT22;6856;51.460;7.158;2024-03-08T10:30:00;10.90;53.50
13569;DHT22;6856;51.460;7.158;2024-03-08T10:32:35;11.00;53.40
13569;DHT22;6856;51.460;7.158;2024-03-08T10:35:10;11.30;53.30
13569;DHT22;6856;51.460;7.158;2024-03-08T10:37:46;11.20;53.30
13569;DHT22;6856;51.460;7.158;2024-03-08T10:40:25;11.20;53.30
13569;DHT22;6856;51.460;7.158;2024-03-08T10:43:00;11.30;53.20
13569;DHT22;6856;51.460;7.158;2024-03-08T10:45:36;11.40;53.10
13569;DHT22;6856;51.460;7.158;2024-03-08T10:48:26;11.50;53.00
13569;DHT22;6856;51.460;7.158;2024-03-08T10:51:11;11.60;52.80
13569;DHT22;6856;51.460;7.158;2024-03-08T10:53:46;11.70;52.80
13569;DHT22;6856;51.460;7.158;2024-03-08T10:56:24;11.70;52.70
13569;DHT22;6856;51.460;7.158;2024-03-08T10:59:00;11.80;52.60
13569;DHT22;6856;51.460;7.158;2024-03-08T11:01:36;11.90;52.40
13569;DHT22;6856;51.460;7.158;2024-03-08T11:04:10;11.90;52.10
13569;DHT22;6856;51.460;7.158;2024-03-08T11:06:47;12.00;52.00
13569;DHT22;6856;51.460;7.158;2024-03-08T11:09:30;12.10;52.00
13569;DHT22;6856;51.460;7.158;2024-03-08T11:12:25;12.20;51.90
13569;DHT22;6856;51.460;7.158;2024-03-08T11:15:09;12.20;51.80
13569;DHT22;6856;51.460;7.158;2024-03-08T11:17:47;12.30;52.00
13569;DHT22;6856;51.460;7.158;2024-03-08T11:20:23;12.40;51.90
13569;DHT22;6856;51.460;7.158;2024-03-08T11:23:00;12.50;51.90
13569;DHT22;6856;51.460;7.158;2024-03-08T11:25:42;12.60;51.70
13569;DHT22;6856;51.460;7.158;2024-03-08T11:28:20;12.70;51.80
13569;DHT22;6856;51.460;7.158;2024-03-08T11:31:24;12.80;51.70
13569;DHT22;6856;51.460;7.158;2024-03-08T11:34:01;12.90;51.40
13569;DHT22;6856;51.460;7.158;2024-03-08T11:36:35;13.00;51.40
13569;DHT22;6856;51.460;7.158;2024-03-08T11:39:09;13.00;51.20
13569;DHT22;6856;51.460;7.158;2024-03-08T11:41:47;13.10;51.00
13569;DHT22;6856;51.460;7.158;2024-03-08T11:44:26;13.20;50.80
13569;DHT22;6856;51.460;7.158;2024-03-08T11:47:01;13.30;50.70
13569;DHT22;6856;51.460;7.158;2024-03-08T11:49:37;13.30;51.20
13569;DHT22;6856;51.460;7.158;2024-03-08T11:52:12;13.40;50.40
13569;DHT22;6856;51.460;7.158;2024-03-08T11:54:52;13.50;50.40
13569;DHT22;6856;51.460;7.158;2024-03-08T11:57:30;13.50;50.20
13569;DHT22;6856;51.460;7.158;2024-03-08T12:00:17;13.60;49.90
13569;DHT22;6856;51.460;7.158;2024-03-08T12:03:02;13.60;49.70
13569;DHT22;6856;51.460;7.158;2024-03-08T12:05:36;13.70;49.90
13569;DHT22;6856;51.460;7.158;2024-03-08T12:08:10;13.80;49.90
13569;DHT22;6856;51.460;7.158;2024-03-08T12:10:46;13.80;50.20
13569;DHT22;6856;51.460;7.158;2024-03-08T12:13:20;13.90;49.50
13569;DHT22;6856;51.460;7.158;2024-03-08T12:15:55;14.00;49.70
13569;DHT22;6856;51.460;7.158;2024-03-08T12:18:34;14.10;50.00
13569;DHT22;6856;51.460;7.158;2024-03-08T12:21:13;14.20;49.90
13569;DHT22;6856;51.460;7.158;2024-03-08T12:24:03;14.30;49.50
13569;DHT22;6856;51.460;7.158;2024-03-08T12:26:40;14.40;49.20
13569;DHT22;6856;51.460;7.158;2024-03-08T12:29:18;14.50;49.30
13569;DHT22;6856;51.460;7.158;2024-03-08T12:31:58;14.50;48.80
13569;DHT22;6856;51.460;7.158;2024-03-08T12:34:34;14.60;48.70
13569;DHT22;6856;51.460;7.158;2024-03-08T12:37:08;14.70;48.60
13569;DHT22;6856;51.460;7.158;2024-03-08T12:39:43;14.80;48.40
13569;DHT22;6856;51.460;7.158;2024-03-08T12:42:18;14.80;48.60
13569;DHT22;6856;51.460;7.158;2024-03-08T12:44:52;14.90;48.20
13569;DHT22;6856;51.460;7.158;2024-03-08T12:47:27;15.00;47.30
13569;DHT22;6856;51.460;7.158;2024-03-08T12:50:03;15.00;46.80
13569;DHT22;6856;51.460;7.158;2024-03-08T12:52:40;15.10;47.10
13569;DHT22;6856;51.460;7.158;2024-03-08T12:55:14;15.20;46.90
13569;DHT22;6856;51.460;7.158;2024-03-08T12:57:48;15.20;46.50
13569;DHT22;6856;51.460;7.158;2024-03-08T13:00:25;15.30;46.40
13569;DHT22;6856;51.460;7.158;2024-03-08T13:03:01;15.40;46.50
13569;DHT22;6856;51.460;7.158;2024-03-08T13:05:35;15.40;46.30
13569;DHT22;6856;51.460;7.158;2024-03-08T13:08:12;15.50;46.20
13569;DHT22;6856;51.460;7.158;2024-03-08T13:10:45;15.60;45.90
13569;DHT22;6856;51.460;7.158;2024-03-08T13:13:19;15.70;45.80
13569;DHT22;6856;51.460;7.158;2024-03-08T13:15:54;15.70;45.70
13569;DHT22;6856;51.460;7.158;2024-03-08T13:18:30;15.80;45.60
13569;DHT22;6856;51.460;7.158;2024-03-08T13:21:05;15.80;45.50
13569;DHT22;6856;51.460;7.158;2024-03-08T13:23:41;15.90;45.30
13569;DHT22;6856;51.460;7.158;2024-03-08T13:26:18;15.90;45.20
13569;DHT22;6856;51.460;7.158;2024-03-08T13:28:52;16.00;45.20
13569;DHT22;6856;51.460;7.158;2024-03-08T13:31:27;16.00;45.00
13569;DHT22;6856;51.460;7.158;2024-03-08T13:34:02;16.00;44.80
13569;DHT22;6856;51.460;7.158;2024-03-08T13:36:38;16.00;45.00
13569;DHT22;6856;51.460;7.158;2024-03-08T13:39:16;16.00;44.70
13569;DHT22;6856;51.460;7.158;2024-03-08T13:41:53;16.00;44.60
13569;DHT22;6856;51.460;7.158;2024-03-08T13:44:27;16.00;44.60
13569;DHT22;6856;51.460;7.158;2024-03-08T13:47:03;16.00;44.50
13569;DHT22;6856;51.460;7.158;2024-03-08T13:49:41;16.00;44.50
13569;DHT22;6856;51.460;7.158;2024-03-08T13:52:16;16.00;44.40
13569;DHT22;6856;51.460;7.158;2024-03-08T13:54:51;15.90;44.30
13569;DHT22;6856;51.460;7.158;2024-03-08T13:57:25;15.90;44.40
13569;DHT22;6856;51.460;7.158;2024-03-08T13:59:59;15.90;44.60
13569;DHT22;6856;51.460;7.158;2024-03-08T14:02:33;15.90;44.50
13569;DHT22;6856;51.460;7.158;2024-03-08T14:05:10;15.80;44.60
13569;DHT22;6856;51.460;7.158;2024-03-08T14:07:46;15.80;44.10
13569;DHT22;6856;51.460;7.158;2024-03-08T14:10:22;15.80;43.80
13569;DHT22;6856;51.460;7.158;2024-03-08T14:12:56;15.80;44.40
13569;DHT22;6856;51.460;7.158;2024-03-08T14:15:30;15.80;44.80
13569;DHT22;6856;51.460;7.158;2024-03-08T14:18:05;15.80;44.10
13569;DHT22;6856;51.460;7.158;2024-03-08T14:20:41;15.80;43.90
13569;DHT22;6856;51.460;7.158;2024-03-08T14:23:16;15.80;43.90
13569;DHT22;6856;51.460;7.158;2024-03-08T14:25:50;15.80;43.80
13569;DHT22;6856;51.460;7.158;2024-03-08T14:28:25;15.80;43.80
13569;DHT22;6856;51.460;7.158;2024-03-08T14:30:59;15.80;44.20
13569;DHT22;6856;51.460;7.158;2024-03-08T14:33:38;15.80;44.10
13569;DHT22;6856;51.460;7.158;2024-03-08T14:36:15;15.80;44.70
13569;DHT22;6856;51.460;7.158;2024-03-08T14:38:51;15.90;44.20
13569;DHT22;6856;51.460;7.158;2024-03-08T14:41:27;15.90;43.90
13569;DHT22;6856;51.460;7.158;2024-03-08T14:44:02;16.00;43.90
13569;DHT22;6856;51.460;7.158;2024-03-08T14:46:36;16.00;44.20
13569;DHT22;6856;51.460;7.158;2024-03-08T14:49:10;16.00;44.40
13569;DHT22;6856;51.460;7.158;2024-03-08T14:51:46;16.00;43.80
13569;DHT22;6856;51.460;7.158;2024-03-08T14:54:20;16.00;43.70
13569;DHT22;6856;51.460;7.158;2024-03-08T14:56:54;16.10;43.60
13569;DHT22;6856;51.460;7.158;2024-03-08T14:59:30;16.10;43.60
13569;DHT22;6856;51.460;7.158;2024-03-08T15:02:05;16.10;43.60
13569;DHT22;6856;51.460;7.158;2024-03-08T15:04:39;16.10;43.70
13569;DHT22;6856;51.460;7.158;2024-03-08T15:07:15;16.10;43.60
13569;DHT22;6856;51.460;7.158;2024-03-08T15:09:50;16.10;43.40
13569;DHT22;6856;51.460;7.158;2024-03-08T15:12:23;16.10;43.50
13569;DHT22;6856;51.460;7.158;2024-03-08T15:14:58;16.10;43.70
13569;DHT22;6856;51.460;7.158;2024-03-08T15:17:31;16.10;43.90
13569;DHT22;6856;51.460;7.158;2024-03-08T15:20:07;16.00;43.50
13569;DHT22;6856;51.460;7.158;2024-03-08T15:23:03;16.00;43.40
13569;DHT22;6856;51.460;7.158;2024-03-08T15:25:37;16.00;43.30
13569;DHT22;6856;51.460;7.158;2024-03-08T15:28:15;16.00;43.30
13569;DHT22;6856;51.460;7.158;2024-03-08T15:30:52;15.90;43.10
13569;DHT22;6856;51.460;7.158;2024-03-08T15:33:26;15.80;43.10
13569;DHT22;6856;51.460;7.158;2024-03-08T15:36:03;15.80;43.00
13569;DHT22;6856;51.460;7.158;2024-03-08T15:38:43;15.80;43.10
13569;DHT22;6856;51.460;7.158;2024-03-08T15:41:23;15.70;42.90
13569;DHT22;6856;51.460;7.158;2024-03-08T15:43:59;15.70;43.00
13569;DHT22;6856;51.460;7.158;2024-03-08T15:46:33;15.60;42.70
13569;DHT22;6856;51.460;7.158;2024-03-08T15:49:08;15.60;42.70
13569;DHT22;6856;51.460;7.158;2024-03-08T15:51:45;15.50;42.70
13569;DHT22;6856;51.460;7.158;2024-03-08T15:54:21;15.50;42.90
13569;DHT22;6856;51.460;7.158;2024-03-08T15:56:56;15.40;42.80
13569;DHT22;6856;51.460;7.158;2024-03-08T15:59:30;15.30;42.60
13569;DHT22;6856;51.460;7.158;2024-03-08T16:02:08;15.30;42.70
13569;DHT22;6856;51.460;7.158;2024-03-08T16:04:44;15.20;42.60
13569;DHT22;6856;51.460;7.158;2024-03-08T16:07:19;15.10;42.50
13569;DHT22;6856;51.460;7.158;2024-03-08T16:09:54;15.10;42.70
13569;DHT22;6856;51.460;7.158;2024-03-08T16:12:28;15.10;43.00
13569;DHT22;6856;51.460;7.158;2024-03-08T16:15:02;15.00;42.90
13569;DHT22;6856;51.460;7.158;2024-03-08T16:17:39;14.90;42.90
13569;DHT22;6856;51.460;7.158;2024-03-08T16:20:13;14.80;42.70
13569;DHT22;6856;51.460;7.158;2024-03-08T16:22:49;14.80;43.00
13569;DHT22;6856;51.460;7.158;2024-03-08T16:25:26;14.70;43.00
13569;DHT22;6856;51.460;7.158;2024-03-08T16:28:00;14.60;42.90
13569;DHT22;6856;51.460;7.158;2024-03-08T16:30:35;14.60;43.00
13569;DHT22;6856;51.460;7.158;2024-03-08T16:33:08;14.50;43.00
13569;DHT22;6856;51.460;7.158;2024-03-08T16:35:43;14.40;43.00
13569;DHT22;6856;51.460;7.158;2024-03-08T16:38:19;14.40;43.10
13569;DHT22;6856;51.460;7.158;2024-03-08T16:40:57;14.30;43.00
13569;DHT22;6856;51.460;7.158;2024-03-08T16:43:33;14.30;43.10
13569;DHT22;6856;51.460;7.158;2024-03-08T16:46:08;14.20;43.20
13569;DHT22;6856;51.460;7.158;2024-03-08T16:48:43;14.20;43.40
13569;DHT22;6856;51.460;7.158;2024-03-08T16:51:18;14.10;43.50